createdAt,value
2019-04-22T00:00:36.143Z,99.90
2019-04-22T00:02:11.899Z,99.90
2019-04-22T00:03:52.422Z,99.90
2019-04-22T00:05:44.095Z,99.90
2019-04-22T00:07:24.094Z,99.90
2019-04-22T00:09:02.255Z,99.90
2019-04-22T00:10:44.917Z,99.90
2019-04-22T00:12:24.684Z,99.90
2019-04-22T00:15:30.964Z,99.90
2019-04-22T00:17:35.291Z,99.90
2019-04-22T00:19:01.463Z,99.90
2019-04-22T00:20:22.978Z,99.90
2019-04-22T00:22:02.520Z,99.90
2019-04-22T00:23:31.348Z,99.90
2019-04-22T00:25:14.498Z,99.90
2019-04-22T00:26:50.002Z,99.90
2019-04-22T00:28:30.328Z,99.90
2019-04-22T00:30:09.151Z,99.90
2019-04-22T00:31:57.529Z,99.90
2019-04-22T00:33:34.289Z,99.90
2019-04-22T00:35:05.914Z,99.90
2019-04-22T00:36:42.013Z,99.90
2019-04-22T00:38:23.995Z,99.90
2019-04-22T00:39:57.355Z,99.90
2019-04-22T00:41:37.181Z,99.90
2019-04-22T00:43:13.563Z,99.90
2019-04-22T00:44:51.876Z,99.90
2019-04-22T00:46:25.170Z,99.90
2019-04-22T00:48:09.139Z,99.90
2019-04-22T00:53:02.513Z,99.90
2019-04-22T00:54:28.197Z,99.90
2019-04-22T00:57:46.453Z,99.90
2019-04-22T01:01:01.644Z,99.90
2019-04-22T01:02:41.850Z,99.90
2019-04-22T01:05:48.231Z,99.90
2019-04-22T01:07:23.723Z,99.90
2019-04-22T01:09:05.846Z,99.90
2019-04-22T01:10:44.059Z,99.90
2019-04-22T01:12:24.191Z,99.90
2019-04-22T01:13:52.183Z,99.90
2019-04-22T01:15:33.928Z,99.90
2019-04-22T01:17:09.594Z,99.90
2019-04-22T01:57:18.746Z,99.90
2019-04-22T01:58:44.173Z,99.90
2019-04-22T02:00:38.432Z,99.90
2019-04-22T02:02:13.414Z,99.90
2019-04-22T02:03:53.207Z,99.90
2019-04-22T02:07:03.221Z,99.90
2019-04-22T02:08:52.768Z,99.90
2019-04-22T02:10:11.066Z,99.90
2019-04-22T02:13:29.113Z,99.90
2019-04-22T02:15:04.543Z,99.90
2019-04-22T02:16:41.285Z,99.90
2019-04-22T02:18:23.073Z,99.90
2019-04-22T02:19:57.900Z,99.90
2019-04-22T02:21:30.185Z,99.90
2019-04-22T02:24:58.610Z,99.90
2019-04-22T02:26:41.934Z,99.90
2019-04-22T02:28:28.053Z,99.90
2019-04-22T02:29:47.364Z,99.90
2019-04-22T02:31:37.081Z,99.90
2019-04-22T02:33:34.483Z,99.90
2019-04-22T02:38:10.054Z,99.90
2019-04-22T02:39:45.208Z,99.90
2019-04-22T02:43:01.676Z,99.90
2019-04-22T02:44:31.451Z,99.90
2019-04-22T02:46:22.946Z,99.90
2019-04-22T02:47:42.201Z,99.90
2019-04-22T02:49:25.485Z,99.90
2019-04-22T02:51:08.730Z,99.90
2019-04-22T02:55:49.289Z,99.90
2019-04-22T02:57:30.199Z,99.90
2019-04-22T02:59:12.429Z,99.90
2019-04-22T03:00:58.401Z,99.90
2019-04-22T03:02:21.433Z,99.90
2019-04-22T03:05:36.642Z,99.90
2019-04-22T03:06:59.701Z,99.90
2019-04-22T03:33:52.165Z,99.90
2019-04-22T03:37:26.981Z,99.90
2019-04-22T03:39:06.305Z,99.90
2019-04-22T03:43:28.134Z,99.90
2019-04-22T03:45:17.007Z,99.90
2019-04-22T03:46:50.981Z,99.90
2019-04-22T03:48:26.107Z,99.90
2019-04-22T03:51:38.277Z,99.90
2019-04-22T03:54:49.510Z,99.90
2019-04-22T03:56:51.111Z,99.90
2019-04-22T03:59:41.415Z,99.90
2019-04-22T04:01:18.744Z,99.90
2019-04-22T04:02:45.713Z,99.90
2019-04-22T04:06:00.050Z,99.90
2019-04-22T04:07:48.109Z,99.90
2019-04-22T04:09:19.509Z,99.90
2019-04-22T04:10:49.855Z,99.90
2019-04-22T04:14:09.329Z,99.90
2019-04-22T04:20:39.427Z,99.90
2019-04-22T04:22:19.199Z,99.90
2019-04-22T04:30:26.087Z,99.90
2019-04-22T04:31:59.039Z,99.90
2019-04-22T04:33:23.505Z,99.90
2019-04-22T04:35:12.733Z,99.90
2019-04-22T04:36:41.689Z,99.90
2019-04-22T04:37:58.852Z,99.90
2019-04-22T04:40:05.199Z,99.90
2019-04-22T04:41:34.168Z,99.90
2019-04-22T04:43:18.958Z,99.90
2019-04-22T04:44:58.862Z,99.90
2019-04-22T04:55:51.875Z,99.90
2019-04-22T05:02:29.090Z,99.90
2019-04-22T05:42:20.291Z,99.90
2019-04-22T05:58:31.296Z,99.90
2019-04-22T06:00:06.488Z,99.90
2019-04-22T06:01:52.183Z,99.90
2019-04-22T06:03:16.485Z,99.90
2019-04-22T06:04:58.262Z,99.90
2019-04-22T06:06:32.251Z,99.90
2019-04-22T06:08:11.878Z,99.90
2019-04-22T06:51:37.721Z,99.50
2019-04-22T06:53:33.219Z,84.60
2019-04-22T06:54:54.754Z,84.60
2019-04-22T06:56:22.252Z,85.90
2019-04-22T06:58:08.304Z,85.80
2019-04-22T06:59:36.616Z,86.90
2019-04-22T07:01:24.565Z,87.00
2019-04-22T07:04:29.773Z,88.50
2019-04-22T07:06:07.393Z,90.30
2019-04-22T07:07:52.116Z,83.30
2019-04-22T07:14:06.901Z,86.30
2019-04-22T07:15:50.496Z,86.60
2019-04-22T07:17:23.195Z,88.40
2019-04-22T07:19:01.911Z,85.30
2019-04-22T07:20:41.635Z,83.50
2019-04-22T07:22:18.129Z,84.20
2019-04-22T07:24:03.007Z,83.50
2019-04-22T07:25:23.410Z,81.80
2019-04-22T07:27:05.281Z,81.60
2019-04-22T07:28:37.789Z,83.70
2019-04-22T07:31:55.795Z,82.10
2019-04-22T07:33:34.848Z,83.10
2019-04-22T07:35:08.580Z,85.20
2019-04-22T07:38:25.598Z,82.30
2019-04-22T07:39:50.219Z,83.40
2019-04-22T07:41:31.729Z,84.60
2019-04-22T07:43:15.506Z,85.90
2019-04-22T07:46:19.819Z,85.20
2019-04-22T07:48:06.092Z,88.40
2019-04-22T07:51:16.793Z,87.10
2019-04-22T07:52:51.391Z,83.10
2019-04-22T07:57:39.601Z,84.00
2019-04-22T07:59:26.879Z,76.50
2019-04-22T08:00:55.339Z,70.90
2019-04-22T08:09:01.923Z,76.40
2019-04-22T08:12:12.089Z,78.00
2019-04-22T08:13:49.851Z,71.00
2019-04-22T08:15:31.257Z,71.60
2019-04-22T08:17:07.311Z,62.80
2019-04-22T08:18:59.672Z,63.50
2019-04-22T08:20:19.031Z,65.20
2019-04-22T08:21:52.210Z,67.80
2019-04-22T08:23:31.699Z,65.10
2019-04-22T08:25:04.152Z,66.60
2019-04-22T08:26:49.787Z,67.00
2019-04-22T08:28:17.935Z,57.80
2019-04-22T08:31:46.867Z,58.50
2019-04-22T08:44:39.137Z,59.10
2019-04-22T08:46:13.480Z,60.30
2019-04-22T08:47:44.300Z,58.70
2019-04-22T08:49:18.905Z,57.30
2019-04-22T08:50:58.593Z,58.60
2019-04-22T08:52:36.352Z,59.00
2019-04-22T08:55:51.356Z,59.40
2019-04-22T08:57:33.008Z,57.90
2019-04-22T08:59:04.782Z,58.50
2019-04-22T09:00:43.910Z,57.80
2019-04-22T09:02:20.589Z,57.30
2019-04-22T09:03:52.675Z,59.10
2019-04-22T09:05:42.389Z,56.50
2019-04-22T09:07:12.724Z,59.60
2019-04-22T09:08:45.637Z,58.80
2019-04-22T09:10:21.708Z,58.00
2019-04-22T09:11:54.632Z,58.00
2019-04-22T09:15:08.641Z,56.90
2019-04-22T09:16:45.960Z,55.40
2019-04-22T09:18:21.668Z,54.90
2019-04-22T09:19:56.342Z,54.00
2019-04-22T09:21:32.630Z,56.30
2019-04-22T09:23:07.569Z,55.90
2019-04-22T09:26:27.372Z,56.10
2019-04-22T09:27:56.021Z,56.60
2019-04-22T09:29:39.733Z,57.40
2019-04-22T09:31:15.477Z,54.30
2019-04-22T09:32:59.167Z,55.80
2019-04-22T09:34:29.775Z,54.50
2019-04-22T09:36:12.748Z,54.40
2019-04-22T09:37:47.269Z,56.60
2019-04-22T09:39:19.499Z,54.30
2019-04-22T09:40:52.471Z,50.50
2019-04-22T09:42:32.551Z,54.20
2019-04-22T09:44:02.607Z,53.90
2019-04-22T09:45:43.359Z,52.30
2019-04-22T09:47:19.418Z,50.70
2019-04-22T09:49:00.343Z,49.90
2019-04-22T09:50:38.478Z,48.60
2019-04-22T09:52:11.706Z,49.20
2019-04-22T09:53:57.785Z,50.90
2019-04-22T09:55:21.709Z,52.90
2019-04-22T09:57:01.878Z,49.50
2019-04-22T09:58:40.304Z,48.30
2019-04-22T10:00:13.798Z,48.80
2019-04-22T10:03:25.906Z,49.10
2019-04-22T10:05:07.553Z,52.40
2019-04-22T10:06:36.723Z,50.20
2019-04-22T10:08:24.672Z,48.80
2019-04-22T10:11:35.054Z,49.10
2019-04-22T10:13:03.182Z,50.40
2019-04-22T10:14:46.445Z,49.80
2019-04-22T10:16:29.226Z,49.70
2019-04-22T10:17:58.206Z,50.60
2019-04-22T10:19:31.420Z,50.80
2019-04-22T10:21:10.125Z,50.10
2019-04-22T10:22:46.066Z,50.80
2019-04-22T10:24:19.265Z,50.80
2019-04-22T10:26:02.552Z,50.20
2019-04-22T10:27:32.751Z,49.90
2019-04-22T10:29:13.683Z,50.70
2019-04-22T10:30:46.815Z,51.30
2019-04-22T10:32:25.211Z,50.90
2019-04-22T10:33:53.213Z,50.90
2019-04-22T10:35:18.933Z,50.60
2019-04-22T10:36:53.150Z,50.10
2019-04-22T10:38:26.601Z,49.50
2019-04-22T10:40:04.765Z,48.50
2019-04-22T10:41:38.926Z,50.10
2019-04-22T10:43:14.997Z,48.50
2019-04-22T10:44:51.748Z,49.10
2019-04-22T10:57:29.789Z,48.80
2019-04-22T10:59:04.866Z,48.70
2019-04-22T11:00:41.783Z,49.50
2019-04-22T11:02:17.334Z,50.00
2019-04-22T11:03:53.160Z,48.00
2019-04-22T11:05:28.289Z,49.30
2019-04-22T11:07:07.266Z,49.30
2019-04-22T11:08:50.045Z,49.30
2019-04-22T11:10:35.491Z,49.20
2019-04-22T11:12:02.150Z,49.70
2019-04-22T11:13:31.803Z,51.10
2019-04-22T11:15:07.792Z,50.60
2019-04-22T11:16:43.593Z,51.30
2019-04-22T11:18:19.835Z,47.80
2019-04-22T11:19:55.354Z,48.40
2019-04-22T11:21:31.644Z,48.30
2019-04-22T11:23:06.924Z,48.30
2019-04-22T11:24:41.729Z,48.70
2019-04-22T11:26:17.758Z,47.60
2019-04-22T11:27:53.741Z,47.80
2019-04-22T11:29:29.908Z,49.00
2019-04-22T11:31:06.200Z,46.70
2019-04-22T11:47:03.389Z,48.70
2019-04-22T11:48:38.406Z,51.80
2019-04-22T11:50:15.783Z,51.90
2019-04-22T11:51:51.808Z,50.60
2019-04-22T11:53:27.028Z,51.70
2019-04-22T12:04:35.970Z,51.30
2019-04-22T12:06:10.834Z,55.90
2019-04-22T12:07:47.027Z,56.00
2019-04-22T12:09:23.815Z,57.50
2019-04-22T12:11:01.916Z,58.90
2019-04-22T12:12:36.305Z,58.30
2019-04-22T12:14:11.822Z,57.20
2019-04-22T12:15:46.899Z,57.70
2019-04-22T12:17:22.362Z,56.60
2019-04-22T12:18:58.760Z,56.70
2019-04-22T12:20:35.002Z,58.10
2019-04-22T12:22:11.055Z,55.50
2019-04-22T12:23:47.247Z,55.20
2019-04-22T12:25:36.138Z,55.80
2019-04-22T12:27:00.377Z,56.10
2019-04-22T12:28:35.268Z,53.70
2019-04-22T12:30:11.458Z,54.50
2019-04-22T12:31:47.267Z,55.80
2019-04-22T12:33:23.465Z,55.40
2019-04-22T12:34:59.651Z,55.70
2019-04-22T12:36:36.142Z,57.10
2019-04-22T12:38:13.120Z,56.80
2019-04-22T12:39:49.872Z,56.30
2019-04-22T12:41:25.843Z,57.70
2019-04-22T12:43:04.647Z,56.20
2019-04-22T12:44:39.189Z,56.00
2019-04-22T12:46:14.523Z,57.80
2019-04-22T12:47:50.441Z,58.10
2019-04-22T12:49:26.142Z,58.60
2019-04-22T12:51:01.004Z,60.30
2019-04-22T12:52:43.718Z,56.70
2019-04-22T12:54:13.146Z,56.30
2019-04-22T12:55:48.495Z,55.20
2019-04-22T12:57:24.768Z,57.40
2019-04-22T12:58:59.624Z,58.20
2019-04-22T13:00:36.216Z,59.20
2019-04-22T13:02:11.618Z,58.30
2019-04-22T13:03:46.546Z,57.20
2019-04-22T13:05:22.812Z,56.10
2019-04-22T13:06:58.070Z,56.80
2019-04-22T13:08:33.935Z,58.00
2019-04-22T13:10:10.961Z,56.40
2019-04-22T13:11:46.042Z,56.40
2019-04-22T13:14:57.135Z,56.80
2019-04-22T13:16:33.165Z,59.10
2019-04-22T13:18:19.039Z,60.40
2019-04-22T13:19:44.793Z,58.70
2019-04-22T13:21:20.536Z,59.80
2019-04-22T13:22:56.826Z,59.10
2019-04-22T13:24:32.087Z,60.20
2019-04-22T13:26:07.413Z,60.30
2019-04-22T13:27:42.897Z,59.30
2019-04-22T13:29:19.234Z,60.60
2019-04-22T13:30:54.795Z,61.50
2019-04-22T13:32:31.226Z,59.50
2019-04-22T13:34:10.519Z,58.90
2019-04-22T13:35:43.831Z,57.50
2019-04-22T13:37:19.127Z,59.00
2019-04-22T14:22:20.121Z,57.70
2019-04-22T16:13:16.455Z,58.80
2019-04-22T16:14:49.467Z,63.20
2019-04-22T16:16:22.924Z,63.40
2019-04-22T16:18:01.128Z,63.70
2019-04-22T16:19:35.182Z,64.30
2019-04-22T16:21:11.296Z,64.40
2019-04-22T16:23:05.496Z,64.70
2019-04-22T16:24:58.293Z,64.60
2019-04-22T16:26:48.967Z,65.20
2019-04-22T16:28:24.974Z,64.70
2019-04-22T16:30:01.332Z,64.40
2019-04-22T16:31:37.641Z,64.50
2019-04-22T16:33:15.067Z,62.70
2019-04-22T16:34:50.165Z,62.90
2019-04-22T16:36:25.032Z,63.50
2019-04-22T16:38:01.042Z,64.60
2019-04-22T16:39:36.562Z,63.10
2019-04-22T16:41:12.927Z,63.40
2019-04-22T16:42:55.169Z,63.50
2019-04-22T16:44:24.938Z,63.70
2019-04-22T16:46:01.449Z,63.50
2019-04-22T16:47:37.422Z,63.70
2019-04-22T16:49:13.882Z,63.80
2019-04-22T16:50:52.207Z,64.10
2019-04-22T16:52:25.991Z,63.70
2019-04-22T16:54:02.178Z,64.20
2019-04-22T16:55:37.253Z,63.70
2019-04-22T16:57:12.192Z,64.20
2019-04-22T16:58:48.513Z,64.00
2019-04-22T17:00:25.017Z,64.40
2019-04-22T17:02:06.822Z,63.70
2019-04-22T17:04:00.752Z,64.50
2019-04-22T17:05:53.742Z,65.10
2019-04-22T17:07:29.993Z,65.30
2019-04-22T17:09:08.963Z,65.40
2019-04-22T17:10:44.281Z,65.40
2019-04-22T17:12:19.563Z,65.70
2019-04-22T17:13:55.213Z,65.60
2019-04-22T17:15:31.291Z,66.00
2019-04-22T17:17:06.583Z,66.10
2019-04-22T17:18:41.616Z,66.60
2019-04-22T17:20:17.444Z,66.20
2019-04-22T17:21:53.456Z,66.30
2019-04-22T17:23:29.669Z,66.20
2019-04-22T17:25:06.451Z,66.50
2019-04-22T17:26:42.369Z,66.70
2019-04-22T17:28:17.507Z,66.80
2019-04-22T17:29:52.578Z,67.30
2019-04-22T17:31:28.857Z,67.70
2019-04-22T17:33:05.120Z,67.60
2019-04-22T17:34:41.350Z,67.60
2019-04-22T17:36:16.933Z,68.20
2019-04-22T17:38:01.779Z,69.40
2019-04-22T17:39:41.159Z,68.90
2019-04-22T17:41:20.913Z,68.90
2019-04-22T17:43:06.729Z,69.20
2019-04-22T17:44:43.869Z,68.80
2019-04-22T17:46:32.278Z,69.60
2019-04-22T17:48:30.901Z,69.60
2019-04-22T17:50:13.409Z,69.80
2019-04-22T17:52:15.546Z,70.30
2019-04-22T17:53:50.974Z,70.70
2019-04-22T17:55:21.418Z,71.20
2019-04-22T17:56:53.905Z,71.50
2019-04-22T17:58:34.756Z,71.90
2019-04-22T18:00:07.029Z,72.40
2019-04-22T18:01:43.780Z,72.80
2019-04-22T18:03:16.164Z,73.10
2019-04-22T18:05:05.531Z,73.60
2019-04-22T18:07:07.278Z,73.80
2019-04-22T18:08:34.591Z,74.70
2019-04-22T18:10:27.087Z,75.40
2019-04-22T18:11:52.043Z,76.30
2019-04-22T18:13:31.872Z,76.60
2019-04-22T18:15:04.310Z,77.40
2019-04-22T18:16:42.763Z,77.70
2019-04-22T18:18:21.702Z,78.00
2019-04-22T18:19:49.185Z,78.70
2019-04-22T19:15:11.455Z,79.30
2019-04-22T19:16:39.907Z,99.90
2019-04-22T19:18:27.133Z,99.90
2019-04-22T19:20:03.115Z,99.90
2019-04-22T19:21:36.302Z,99.90
2019-04-22T19:23:13.111Z,99.90
2019-04-22T19:24:45.908Z,99.90
2019-04-22T19:26:32.482Z,99.90
2019-04-22T19:28:10.111Z,99.90
2019-04-22T19:29:36.800Z,99.90
2019-04-22T19:31:17.278Z,99.90
2019-04-22T19:36:01.500Z,99.90
2019-04-22T19:37:33.157Z,99.90
2019-04-22T19:39:09.091Z,99.90
2019-04-22T19:41:03.123Z,99.90
2019-04-22T19:42:31.031Z,99.90
2019-04-22T19:44:04.074Z,99.90
2019-04-22T19:45:40.067Z,99.90
2019-04-22T19:47:40.115Z,99.90
2019-04-22T19:48:56.511Z,99.90
2019-04-22T19:50:37.523Z,99.90
2019-04-22T19:53:47.375Z,99.90
2019-04-22T19:55:23.801Z,99.90
2019-04-22T19:56:53.151Z,99.90
2019-04-22T19:58:37.518Z,99.90
2019-04-22T20:00:19.090Z,99.90
2019-04-22T20:02:11.527Z,99.90
2019-04-22T20:04:23.076Z,99.90
2019-04-22T20:06:01.059Z,99.90
2019-04-22T20:07:38.651Z,99.90
2019-04-22T20:14:12.049Z,99.90
2019-04-22T20:15:37.501Z,99.90
2019-04-22T20:17:30.058Z,99.90
2019-04-22T20:19:10.436Z,99.90
2019-04-22T20:20:41.310Z,99.90
2019-04-22T20:22:14.301Z,99.90
2019-04-22T20:23:43.053Z,99.90
2019-04-22T20:25:15.245Z,99.90
2019-04-22T20:27:05.202Z,99.90
2019-04-22T20:28:42.067Z,99.90
2019-04-22T20:30:18.683Z,99.90
2019-04-22T20:31:56.154Z,99.90
2019-04-22T20:33:43.261Z,99.90
2019-04-22T20:35:07.853Z,99.90
2019-04-22T20:37:03.714Z,99.90
2019-04-22T20:38:18.475Z,99.90
2019-04-22T20:39:58.728Z,99.90
2019-04-22T20:41:31.543Z,99.90
2019-04-22T20:43:15.017Z,99.90
2019-04-22T20:44:53.779Z,99.90
2019-04-22T20:46:22.466Z,99.90
2019-04-22T20:47:50.959Z,99.90
2019-04-22T20:49:35.543Z,99.90
2019-04-22T20:51:11.269Z,99.90
2019-04-22T20:52:54.111Z,99.90
2019-04-22T20:54:22.922Z,99.90
2019-04-22T20:56:06.800Z,99.90
2019-04-22T20:57:40.451Z,99.90
2019-04-22T20:59:19.340Z,99.90
2019-04-22T21:00:46.455Z,99.90
2019-04-22T21:02:23.744Z,99.90
2019-04-22T21:03:53.588Z,99.90
2019-04-22T21:05:33.947Z,99.90
2019-04-22T21:07:13.785Z,99.90
2019-04-22T21:09:02.261Z,99.90
2019-04-22T21:10:28.751Z,99.90
2019-04-22T21:12:07.605Z,99.90
2019-04-22T21:13:41.016Z,99.90
2019-04-22T21:15:26.292Z,99.90
2019-04-22T21:17:02.179Z,99.90
2019-04-22T21:18:30.590Z,99.90
2019-04-22T21:20:17.308Z,99.90
2019-04-22T21:21:50.341Z,99.90
2019-04-22T21:23:25.679Z,99.90
2019-04-22T21:24:59.348Z,99.90
2019-04-22T21:26:42.129Z,99.90
2019-04-22T21:28:15.716Z,99.90
2019-04-22T21:29:47.294Z,99.90
2019-04-22T21:31:33.713Z,99.90
2019-04-22T21:33:03.564Z,99.90
2019-04-22T21:34:49.116Z,99.90
2019-04-22T21:36:24.874Z,99.90
2019-04-22T21:38:03.052Z,99.90
2019-04-22T21:39:33.405Z,99.90
2019-04-22T21:41:09.867Z,99.90
2019-04-22T21:42:54.833Z,99.90
2019-04-22T21:44:21.254Z,99.90
2019-04-22T21:46:04.855Z,99.90
2019-04-22T21:49:21.634Z,99.90
2019-04-22T21:50:59.879Z,99.90
2019-04-22T21:52:27.787Z,99.90
2019-04-22T21:54:13.506Z,99.90
2019-04-22T21:55:46.698Z,99.90
2019-04-22T21:57:30.634Z,99.90
2019-04-22T21:59:10.696Z,99.90
2019-04-22T22:01:10.274Z,99.90
2019-04-22T22:02:31.321Z,99.90
2019-04-22T22:04:15.270Z,99.90
2019-04-22T22:05:40.109Z,99.90
2019-04-22T22:07:11.353Z,99.90
2019-04-22T22:09:02.542Z,99.90
2019-04-22T22:10:39.792Z,99.90
2019-04-22T22:12:08.003Z,99.90
2019-04-22T22:13:45.631Z,99.90
2019-04-22T22:15:24.716Z,99.90
2019-04-22T22:16:53.034Z,99.90
2019-04-22T22:18:29.054Z,99.90
2019-04-22T22:20:12.747Z,99.90
2019-04-22T22:22:02.374Z,99.90
2019-04-22T22:23:36.383Z,99.90
2019-04-22T22:25:11.111Z,99.90
2019-04-22T22:26:45.060Z,99.90
2019-04-22T22:28:33.390Z,99.90
2019-04-22T22:30:06.668Z,99.90
2019-04-22T22:31:40.091Z,99.90
2019-04-22T22:33:10.471Z,99.90
2019-04-22T22:34:47.560Z,99.90
2019-04-22T22:36:20.219Z,99.90
2019-04-22T22:37:55.248Z,99.90
2019-04-22T22:39:31.129Z,99.90
2019-04-22T22:40:55.931Z,99.90
2019-04-22T22:42:36.986Z,99.90
2019-04-22T22:44:16.288Z,99.90
2019-04-22T22:45:52.821Z,99.90
2019-04-22T22:47:39.353Z,99.90
2019-04-22T22:49:26.458Z,99.90
2019-04-22T22:50:55.057Z,99.90
2019-04-22T22:54:12.048Z,99.90
2019-04-22T22:55:46.375Z,99.90
2019-04-22T22:57:28.773Z,99.90
2019-04-22T22:59:01.863Z,99.90
2019-04-22T23:00:35.663Z,99.90
2019-04-22T23:02:11.553Z,99.90
2019-04-22T23:03:58.488Z,99.90
2019-04-22T23:05:30.577Z,99.90
2019-04-22T23:07:13.042Z,99.90
2019-04-22T23:08:44.686Z,99.90
2019-04-22T23:10:19.729Z,99.90
2019-04-22T23:12:06.193Z,99.90
2019-04-22T23:13:31.595Z,99.90
2019-04-22T23:15:06.613Z,99.90
2019-04-22T23:16:35.379Z,99.90
2019-04-22T23:18:01.682Z,99.90
2019-04-22T23:19:41.918Z,99.90
2019-04-22T23:21:19.346Z,99.90
2019-04-22T23:23:15.755Z,99.90
2019-04-22T23:25:15.990Z,99.90
2019-04-22T23:27:06.617Z,99.90
2019-04-22T23:28:49.964Z,99.90
2019-04-22T23:30:56.846Z,99.90
2019-04-22T23:32:35.792Z,99.90
2019-04-22T23:34:21.077Z,99.90
2019-04-22T23:36:12.618Z,99.90
2019-04-22T23:38:01.446Z,99.90
2019-04-22T23:39:42.249Z,99.90
2019-04-22T23:41:38.911Z,99.90
2019-04-22T23:43:07.084Z,99.90
2019-04-22T23:44:43.358Z,99.90
2019-04-22T23:46:11.476Z,99.90
2019-04-22T23:47:44.866Z,99.90
2019-04-22T23:49:25.337Z,99.90
2019-04-22T23:51:09.375Z,99.90
2019-04-22T23:53:08.740Z,99.90
2019-04-22T23:54:40.858Z,99.90
2019-04-22T23:56:11.076Z,99.90
2019-04-22T23:57:52.352Z,99.90
2019-04-22T23:59:38.577Z,99.90
